createdAt,value
2022-09-23T05:01:54.598Z,73.60
2022-09-23T05:07:02.863Z,73.60
2022-09-23T05:12:07.413Z,73.70
2022-09-23T05:17:12.955Z,74.00
2022-09-23T05:22:16.537Z,74.10
2022-09-23T05:27:20.614Z,74.20
2022-09-23T05:32:26.357Z,74.40
2022-09-23T05:37:29.963Z,74.50
2022-09-23T05:42:34.226Z,74.60
2022-09-23T05:47:39.165Z,74.80
2022-09-23T05:52:42.675Z,74.90
2022-09-23T05:57:46.500Z,74.90
2022-09-23T06:02:51.502Z,74.90
2022-09-23T06:07:55.482Z,75.00
2022-09-23T06:12:58.980Z,75.30
2022-09-23T06:18:04.559Z,75.50
2022-09-23T06:23:10.677Z,75.50
2022-09-23T06:28:14.579Z,75.70
2022-09-23T06:33:29.973Z,75.70
2022-09-23T06:38:36.281Z,75.80
2022-09-23T06:43:39.814Z,76.00
2022-09-23T06:48:46.258Z,75.70
2022-09-23T06:53:50.427Z,76.30
2022-09-23T06:58:54.762Z,76.70
2022-09-23T07:04:00.721Z,76.60
2022-09-23T07:09:04.596Z,76.40
2022-09-23T07:14:08.209Z,76.50
2022-09-23T07:19:13.574Z,76.60
2022-09-23T07:24:18.078Z,76.60
2022-09-23T07:29:21.771Z,76.60
2022-09-23T07:34:26.841Z,76.80
2022-09-23T07:39:30.481Z,76.90
2022-09-23T07:44:34.305Z,76.80
2022-09-23T07:49:39.519Z,76.90
2022-09-23T07:54:43.130Z,76.90
2022-09-23T07:59:46.667Z,77.20
2022-09-23T08:04:53.322Z,77.50
2022-09-23T08:09:56.863Z,77.50
2022-09-23T08:15:00.642Z,77.70
2022-09-23T08:20:06.984Z,77.50
2022-09-23T08:25:10.761Z,77.30
2022-09-23T08:30:14.767Z,77.40
2022-09-23T08:35:20.515Z,77.50
2022-09-23T08:40:25.338Z,77.20
2022-09-23T08:45:30.160Z,77.00
2022-09-23T08:50:42.357Z,76.90
2022-09-23T08:55:49.666Z,76.90
2022-09-23T09:01:05.864Z,76.90
2022-09-23T09:06:17.572Z,77.10
2022-09-23T09:11:23.954Z,76.90
2022-09-23T09:16:59.548Z,77.00
2022-09-23T09:22:13.683Z,77.10
2022-09-23T09:27:17.816Z,77.20
2022-09-23T09:32:33.859Z,77.30
2022-09-23T09:37:46.822Z,77.40
2022-09-23T09:42:52.023Z,77.00
2022-09-23T09:48:03.424Z,76.70
2022-09-23T09:53:22.407Z,76.60
2022-09-23T09:58:30.054Z,76.80
2022-09-23T10:03:38.743Z,76.80
2022-09-23T10:08:51.021Z,77.00
2022-09-23T10:14:13.546Z,77.00
2022-09-23T10:19:26.544Z,77.00
2022-09-23T10:24:36.338Z,77.20
2022-09-23T10:29:41.444Z,77.00
2022-09-23T10:34:47.933Z,76.90
2022-09-23T10:40:10.511Z,77.00
2022-09-23T10:45:41.197Z,76.90
2022-09-23T10:50:50.466Z,77.00
2022-09-23T10:56:13.002Z,76.30
2022-09-23T11:01:31.077Z,76.50
2022-09-23T11:06:48.619Z,76.20
2022-09-23T11:12:08.417Z,75.60
2022-09-23T11:17:33.111Z,75.00
2022-09-23T11:22:53.329Z,74.00
2022-09-23T11:28:17.486Z,73.70
2022-09-23T11:33:38.528Z,73.60
2022-09-23T11:38:46.150Z,73.60
2022-09-23T11:43:57.281Z,73.70
2022-09-23T11:49:09.067Z,73.50
2022-09-23T11:54:20.906Z,73.10
2022-09-23T11:59:40.218Z,72.90
2022-09-23T12:04:55.622Z,72.70
2022-09-23T12:10:03.768Z,72.40
2022-09-23T12:15:18.682Z,72.10
2022-09-23T12:20:38.364Z,71.90
2022-09-23T12:25:49.924Z,71.40
2022-09-23T12:30:58.559Z,71.20
2022-09-23T12:36:05.741Z,69.90
2022-09-23T12:41:25.480Z,69.30
2022-09-23T12:46:30.569Z,68.90
2022-09-23T12:51:35.579Z,68.50
2022-09-23T12:56:59.506Z,68.10
2022-09-23T13:02:26.499Z,67.30
2022-09-23T13:07:34.044Z,66.90
2022-09-23T13:12:41.133Z,66.90
2022-09-23T13:17:46.124Z,67.00
2022-09-23T13:23:07.047Z,66.50
2022-09-23T13:28:22.448Z,66.50
2022-09-23T13:33:34.283Z,66.50
2022-09-23T13:38:37.866Z,66.60
2022-09-23T13:43:43.694Z,66.20
2022-09-23T13:48:52.269Z,65.80
2022-09-23T13:53:57.731Z,65.80
2022-09-23T13:59:23.674Z,66.20
2022-09-23T14:04:28.840Z,66.70
2022-09-23T14:09:35.573Z,67.00
2022-09-23T14:14:41.146Z,67.20
2022-09-23T14:19:46.403Z,67.10
2022-09-23T14:24:50.310Z,67.30
2022-09-23T14:29:54.395Z,67.70
2022-09-23T14:35:18.714Z,67.70
2022-09-23T14:40:26.003Z,67.80
2022-09-23T14:45:35.138Z,67.70
2022-09-23T14:50:48.558Z,67.70
2022-09-23T14:55:57.272Z,67.80
2022-09-23T15:01:02.912Z,67.80
2022-09-23T15:06:10.052Z,67.80
2022-09-23T15:11:13.849Z,68.00
2022-09-23T15:16:24.499Z,68.20
2022-09-23T15:21:41.043Z,68.30
2022-09-23T15:26:49.490Z,68.40
2022-09-23T15:31:53.163Z,68.40
2022-09-23T15:36:58.224Z,68.40
2022-09-23T15:42:02.092Z,68.50
2022-09-23T15:47:06.485Z,68.80
2022-09-23T15:52:12.444Z,69.30
2022-09-23T15:57:15.962Z,69.40
2022-09-23T16:02:24.809Z,69.10
2022-09-23T16:07:29.796Z,68.90
2022-09-23T16:12:33.538Z,68.60
2022-09-23T16:17:37.840Z,68.70
2022-09-23T16:22:42.824Z,68.80
2022-09-23T16:27:46.488Z,68.70
2022-09-23T16:32:51.656Z,68.90
2022-09-23T16:37:57.195Z,69.20
2022-09-23T16:43:02.236Z,69.80
2022-09-23T16:48:06.864Z,69.90
2022-09-23T16:53:11.703Z,70.10
2022-09-23T16:58:15.294Z,70.20
2022-09-23T17:03:36.162Z,70.30
2022-09-23T17:08:41.823Z,70.60
2022-09-23T17:13:46.193Z,70.90
2022-09-23T17:18:49.830Z,71.30
2022-09-23T17:23:55.546Z,71.60
2022-09-23T17:29:01.524Z,72.10
2022-09-23T17:34:05.246Z,72.70
2022-09-23T17:39:10.440Z,73.20
2022-09-23T17:44:15.602Z,73.40
2022-09-23T17:49:19.201Z,73.60
2022-09-23T17:54:24.100Z,73.80
2022-09-23T17:59:28.312Z,73.90
2022-09-23T18:04:32.150Z,74.30
2022-09-23T18:09:37.204Z,74.60
2022-09-23T18:14:40.946Z,75.00
2022-09-23T18:19:49.073Z,75.30
2022-09-23T18:24:54.203Z,75.80
2022-09-23T18:29:57.742Z,76.30
2022-09-23T18:35:01.296Z,76.70
2022-09-23T18:40:12.531Z,76.90
2022-09-23T18:45:18.018Z,77.40
2022-09-23T18:50:38.898Z,78.40
2022-09-23T18:55:43.734Z,78.90
2022-09-23T19:00:50.241Z,79.50
2022-09-23T19:05:53.890Z,79.60
2022-09-23T19:10:59.657Z,79.60
2022-09-23T19:16:03.851Z,79.80
2022-09-23T19:21:09.092Z,80.10
2022-09-23T19:26:16.357Z,80.70
2022-09-23T19:31:22.973Z,81.10
2022-09-23T19:36:28.449Z,80.90
2022-09-23T19:41:35.354Z,80.80
2022-09-23T19:46:40.926Z,81.10
2022-09-23T19:51:46.466Z,81.30
2022-09-23T19:56:51.487Z,81.20
2022-09-23T20:01:55.608Z,81.20
2022-09-23T20:06:59.408Z,81.20
2022-09-23T20:12:04.892Z,81.20
2022-09-23T20:17:08.919Z,80.90
2022-09-23T20:22:33.000Z,81.10
2022-09-23T20:27:38.394Z,81.20
2022-09-23T20:32:44.756Z,81.30
2022-09-23T20:37:48.529Z,81.40
2022-09-23T20:42:53.778Z,81.50
2022-09-23T20:48:00.433Z,81.50
2022-09-23T20:53:04.052Z,81.60
2022-09-23T20:58:09.819Z,81.60
2022-09-23T21:03:13.651Z,81.80
2022-09-23T21:08:17.373Z,81.80
2022-09-23T21:13:22.268Z,82.00
2022-09-23T21:18:25.814Z,82.60
2022-09-23T21:23:31.109Z,83.00
2022-09-23T21:28:37.153Z,83.40
2022-09-23T21:33:40.725Z,83.10
2022-09-23T21:38:45.018Z,83.10
2022-09-23T21:43:50.394Z,83.30
2022-09-23T21:48:55.301Z,83.50
2022-09-23T21:54:00.546Z,83.70
2022-09-23T21:59:07.689Z,84.00
2022-09-23T22:04:16.161Z,83.90
2022-09-23T22:09:22.257Z,83.80
2022-09-23T22:14:27.813Z,84.10
2022-09-23T22:19:35.147Z,84.30
2022-09-23T22:24:39.199Z,84.30
